Time;durP1;ratioP1;P1;durP2;ratioP2;P2;SDS_P1;SDS_P2;PMS_P1;PMS_P2;Temp;Humidity;BMP_temperature;BMP_pressure;BME280_temperature;BME280_humidity;BME280_pressure;Samples;Min_cycle;Max_cycle;Signal;HPM_P1;HPM_P2
2023/12/31 00:00:09;;;;;;;27.38;18.27;;;;;;;10.66;75.07;101844.56;4991600;28;20030;-85
2023/12/31 00:02:36;;;;;;;29.20;18.60;;;;;;;10.69;75.41;101852.59;4991237;28;20041;-86
2023/12/31 00:05:02;;;;;;;26.70;17.67;;;;;;;10.65;75.72;101861.06;4991814;28;20042;-87
2023/12/31 00:07:28;;;;;;;26.40;17.55;;;;;;;10.37;75.63;101806.81;4992910;28;20038;-87
2023/12/31 00:09:53;;;;;;;28.60;17.70;;;;;;;10.39;76.03;101810.44;4996653;28;20037;-85
2023/12/31 00:12:19;;;;;;;23.88;17.15;;;;;;;10.16;75.35;101761.81;4983936;28;20035;-85
2023/12/31 00:14:45;;;;;;;24.40;17.17;;;;;;;10.54;75.50;101839.38;4975392;28;20034;-86
2023/12/31 00:17:10;;;;;;;26.92;17.95;;;;;;;10.75;75.18;101866.09;4958095;28;20074;-87
2023/12/31 00:19:36;;;;;;;26.15;17.38;;;;;;;10.51;75.21;101831.31;4979121;28;20140;-87
2023/12/31 00:22:02;;;;;;;26.02;17.27;;;;;;;10.41;75.49;101819.31;4978689;28;20039;-87
2023/12/31 00:24:28;;;;;;;28.48;19.15;;;;;;;10.25;75.23;101785.06;4985136;28;20113;-87
2023/12/31 00:26:53;;;;;;;28.65;17.45;;;;;;;10.53;75.68;101843.69;4978596;28;20027;-87
2023/12/31 00:29:19;;;;;;;25.02;17.40;;;;;;;10.72;75.43;101869.41;4982276;28;20732;-87
2023/12/31 00:31:44;;;;;;;25.75;17.48;;;;;;;10.42;75.27;101812.41;4977539;28;20042;-87
2023/12/31 00:34:11;;;;;;;27.67;18.02;;;;;;;10.19;75.41;101793.34;4989486;28;20044;-88
2023/12/31 00:36:37;;;;;;;27.50;17.73;;;;;;;10.53;75.38;101856.75;4985394;28;20160;-87
2023/12/31 00:39:02;;;;;;;26.17;17.20;;;;;;;10.44;75.52;101834.31;4989648;28;20034;-88
2023/12/31 00:41:28;;;;;;;26.55;17.40;;;;;;;10.25;74.74;101806.84;4970567;28;20525;-87
2023/12/31 00:43:54;;;;;;;27.90;17.60;;;;;;;10.64;75.21;101867.06;4991084;28;20030;-87
2023/12/31 00:46:19;;;;;;;25.23;16.30;;;;;;;10.50;75.35;101842.59;4974836;28;20030;-87
2023/12/31 00:48:46;;;;;;;24.63;16.67;;;;;;;10.41;75.54;101834.06;4975157;28;20041;-88
2023/12/31 00:51:12;;;;;;;26.35;16.70;;;;;;;10.59;75.48;101871.97;4991121;28;20046;-88
2023/12/31 00:53:38;;;;;;;26.60;17.95;;;;;;;10.70;75.69;101877.94;4989131;28;20034;-85
2023/12/31 00:56:04;;;;;;;25.58;17.40;;;;;;;10.27;75.31;101800.03;4967142;28;20041;-86
2023/12/31 00:58:29;;;;;;;27.98;17.35;;;;;;;10.66;75.85;101878.53;4956648;28;20109;-87
2023/12/31 01:00:55;;;;;;;24.58;16.50;;;;;;;10.67;75.69;101883.88;4986853;28;20041;-87
2023/12/31 01:03:20;;;;;;;25.50;16.75;;;;;;;10.64;75.56;101873.19;4980570;28;20033;-85
2023/12/31 01:05:46;;;;;;;26.23;17.45;;;;;;;10.67;75.44;101886.47;4988240;28;20034;-86
2023/12/31 01:08:12;;;;;;;27.83;17.92;;;;;;;10.40;75.19;101835.78;4986141;28;20504;-87
2023/12/31 01:10:39;;;;;;;29.60;18.23;;;;;;;10.25;75.35;101817.28;4991024;28;20103;-86
2023/12/31 01:13:04;;;;;;;26.40;17.65;;;;;;;10.41;75.49;101836.69;4985038;28;20042;-85
2023/12/31 01:15:30;;;;;;;25.05;17.05;;;;;;;10.36;75.38;101837.25;4973559;28;20030;-87
2023/12/31 01:17:56;;;;;;;24.67;17.13;;;;;;;10.49;75.51;101854.72;4973831;28;20174;-86
2023/12/31 01:20:21;;;;;;;29.42;18.65;;;;;;;10.57;75.24;101858.78;4974968;28;20039;-85
2023/12/31 01:22:47;;;;;;;26.75;17.90;;;;;;;10.59;75.61;101867.63;4978576;28;20105;-85
2023/12/31 01:25:14;;;;;;;24.60;17.10;;;;;;;10.29;75.06;101803.69;4989146;28;20030;-87
2023/12/31 01:27:39;;;;;;;25.52;17.73;;;;;;;10.37;75.07;101809.44;4990316;28;20045;-85
2023/12/31 01:30:06;;;;;;;24.58;17.05;;;;;;;10.31;75.36;101796.88;4979424;28;20035;-87
2023/12/31 01:32:31;;;;;;;27.65;17.80;;;;;;;10.42;75.23;101822.84;4989962;28;20062;-87
2023/12/31 01:35:01;;;;;;;25.98;17.38;;;;;;;10.47;74.91;101838.03;4986489;28;20040;-87
2023/12/31 01:37:27;;;;;;;27.23;17.90;;;;;;;10.30;74.76;101801.97;4990964;28;20030;-88
2023/12/31 01:39:53;;;;;;;25.05;17.58;;;;;;;10.44;75.14;101821.25;4987654;28;20040;-88
2023/12/31 01:42:19;;;;;;;26.52;17.75;;;;;;;10.09;74.76;101752.59;4965853;28;20061;-88
2023/12/31 01:44:44;;;;;;;28.00;18.42;;;;;;;10.51;75.16;101836.53;4979010;28;20030;-88
2023/12/31 01:47:10;;;;;;;26.92;17.45;;;;;;;10.25;74.76;101779.84;4992335;28;20066;-88
2023/12/31 01:49:36;;;;;;;26.38;16.98;;;;;;;10.52;75.30;101831.44;4976768;28;20772;-88
2023/12/31 01:52:03;;;;;;;24.10;16.58;;;;;;;10.63;75.32;101849.59;4971667;28;20034;-88
2023/12/31 01:54:28;;;;;;;;;;;;;;;10.63;75.12;101845.25;4980012;28;20034;-87
2023/12/31 01:56:54;;;;;;;25.55;16.63;;;;;;;10.23;75.40;101774.50;4981467;28;20289;-87
2023/12/31 01:59:21;;;;;;;27.70;17.20;;;;;;;10.20;75.09;101774.25;4990305;28;20023;-87
2023/12/31 02:01:48;;;;;;;25.80;17.02;;;;;;;10.10;75.11;101750.94;4981949;28;20030;-87
2023/12/31 02:04:15;;;;;;;24.65;16.25;;;;;;;10.04;74.66;101738.34;4989808;28;20037;-88
2023/12/31 02:06:41;;;;;;;26.08;17.13;;;;;;;10.27;75.01;101779.13;4980964;28;20030;-87
2023/12/31 02:09:08;;;;;;;28.17;17.88;;;;;;;10.59;75.16;101835.41;4967028;28;20034;-87
2023/12/31 02:11:35;;;;;;;25.60;16.42;;;;;;;10.46;75.19;101815.34;4979350;28;20031;-87
2023/12/31 02:14:00;;;;;;;25.52;16.65;;;;;;;10.61;74.97;101838.13;4974535;28;20026;-87
2023/12/31 02:16:27;;;;;;;26.45;17.45;;;;;;;10.07;74.58;101735.03;4968627;28;20142;-87
2023/12/31 02:18:53;;;;;;;24.27;16.40;;;;;;;10.12;75.11;101742.41;4981996;28;20498;-87
2023/12/31 02:21:20;;;;;;;25.40;17.13;;;;;;;10.41;74.76;101807.97;4970445;28;20089;-87
2023/12/31 02:23:46;;;;;;;25.25;16.83;;;;;;;10.23;74.76;101784.94;4977619;28;20037;-88
2023/12/31 02:26:12;;;;;;;25.58;17.38;;;;;;;10.62;74.82;101842.53;4981118;28;20109;-87
2023/12/31 02:28:38;;;;;;;26.23;17.15;;;;;;;10.17;74.73;101767.13;4977935;28;20039;-87
2023/12/31 02:31:05;;;;;;;25.55;16.13;;;;;;;10.33;75.02;101803.09;4987866;28;20029;-87
2023/12/31 02:33:31;;;;;;;25.83;16.48;;;;;;;10.15;75.20;101768.72;4978515;28;20041;-86
2023/12/31 02:35:56;;;;;;;;;;;;;;;10.58;75.15;101841.41;4981463;28;20035;-86
2023/12/31 02:38:22;;;;;;;25.55;16.35;;;;;;;10.12;75.25;101771.13;4987222;28;20426;-86
2023/12/31 02:40:48;;;;;;;24.30;16.27;;;;;;;10.31;75.22;101809.91;4989231;28;20026;-86
2023/12/31 02:43:14;;;;;;;25.17;16.73;;;;;;;10.29;75.02;101807.97;4987183;28;20038;-86
2023/12/31 02:45:39;;;;;;;25.52;16.40;;;;;;;10.53;75.36;101859.34;4970306;28;20118;-86
2023/12/31 02:48:06;;;;;;;28.58;17.98;;;;;;;10.55;75.05;101863.00;4989393;28;20030;-86
2023/12/31 02:50:32;;;;;;;22.50;16.08;;;;;;;10.38;75.08;101840.00;4976795;28;20065;-87
2023/12/31 02:52:58;;;;;;;25.25;16.92;;;;;;;10.29;74.74;101815.81;4987515;28;20058;-87
2023/12/31 02:55:24;;;;;;;;;;;;;;;10.61;74.67;101853.78;4975145;28;20563;-87
2023/12/31 02:57:49;;;;;;;26.33;17.05;;;;;;;10.34;74.34;101836.25;4986557;28;19996;-85
2023/12/31 03:00:15;;;;;;;28.15;17.48;;;;;;;10.35;74.23;101826.69;4975585;28;20108;-87
2023/12/31 03:02:41;;;;;;;30.42;17.80;;;;;;;10.56;74.39;101858.66;4970342;28;20490;-87
2023/12/31 03:05:07;;;;;;;27.10;17.88;;;;;;;10.49;74.34;101856.41;4980561;28;20118;-87
2023/12/31 03:07:34;;;;;;;27.65;18.33;;;;;;;10.37;74.48;101841.69;4982735;28;20140;-88
2023/12/31 03:10:00;;;;;;;28.95;18.13;;;;;;;10.25;74.17;101809.44;4972948;28;20517;-87
2023/12/31 03:12:25;;;;;;;28.83;18.10;;;;;;;10.22;74.40;101801.38;4977381;28;20030;-87
2023/12/31 03:14:51;;;;;;;26.27;17.65;;;;;;;10.51;74.37;101854.81;4985298;28;20050;-87
2023/12/31 03:17:17;;;;;;;26.42;17.38;;;;;;;10.53;74.69;101861.97;4981126;28;20034;-87
2023/12/31 03:19:42;;;;;;;27.20;17.88;;;;;;;10.38;74.98;101845.22;4974657;28;21567;-87
2023/12/31 03:22:08;;;;;;;26.13;17.40;;;;;;;10.05;74.57;101794.94;4980213;28;20034;-85
2023/12/31 03:24:34;;;;;;;27.38;17.55;;;;;;;9.97;74.39;101773.53;4985810;28;20045;-87
2023/12/31 03:27:00;;;;;;;25.67;16.95;;;;;;;10.22;74.67;101832.69;4987222;28;20030;-87
2023/12/31 03:29:26;;;;;;;27.80;18.35;;;;;;;10.35;74.61;101850.19;4960770;28;20437;-88
2023/12/31 03:31:53;;;;;;;25.45;16.35;;;;;;;10.32;74.90;101842.16;4981440;28;20058;-86
2023/12/31 03:34:18;;;;;;;25.10;16.98;;;;;;;10.35;74.91;101855.41;4980896;28;20034;-87
2023/12/31 03:37:03;;;;;;;25.10;16.80;;;;;;;10.51;74.87;101879.22;5108311;27;20432;-86
2023/12/31 03:39:29;;;;;;;25.92;16.42;;;;;;;10.45;75.01;101877.88;5092054;28;20039;-86
2023/12/31 03:41:54;;;;;;;24.00;16.48;;;;;;;10.45;75.31;101877.88;5099677;28;20085;-86
2023/12/31 03:44:20;;;;;;;26.67;16.92;;;;;;;10.31;75.09;101867.38;5107349;28;20089;-86
2023/12/31 03:46:46;;;;;;;29.20;17.20;;;;;;;10.46;75.14;101884.94;5091720;28;20566;-86
2023/12/31 03:49:11;;;;;;;25.98;16.77;;;;;;;10.31;74.65;101863.84;5105262;27;20755;-85
2023/12/31 03:51:37;;;;;;;22.55;15.45;;;;;;;10.23;74.89;101854.53;5101248;28;20115;-86
2023/12/31 03:54:05;;;;;;;23.17;15.52;;;;;;;10.37;74.76;101873.03;5088677;28;20504;-88
2023/12/31 03:56:31;;;;;;;22.73;15.77;;;;;;;10.23;74.63;101857.13;5103829;28;20515;-88
2023/12/31 03:58:57;;;;;;;24.20;16.23;;;;;;;10.35;74.49;101871.06;5109585;27;20063;-86
2023/12/31 04:01:23;;;;;;;22.92;15.18;;;;;;;10.33;74.77;101867.47;5088154;28;20065;-87
2023/12/31 04:03:48;;;;;;;22.35;14.88;;;;;;;10.27;75.10;101870.50;5089830;28;20028;-86
2023/12/31 04:06:14;;;;;;;22.63;15.35;;;;;;;10.23;74.63;101864.97;5096858;28;20038;-86
2023/12/31 04:08:40;;;;;;;24.25;16.35;;;;;;;10.24;74.59;101877.19;5085593;28;20036;-86
2023/12/31 04:11:06;;;;;;;24.27;16.15;;;;;;;10.05;74.68;101843.63;5092703;28;20059;-89
2023/12/31 04:13:32;;;;;;;24.30;15.32;;;;;;;10.11;74.36;101852.81;5104522;28;20530;-89
2023/12/31 04:15:58;;;;;;;24.60;15.75;;;;;;;10.46;74.80;101921.50;5100836;28;20550;-88
2023/12/31 04:18:23;;;;;;;22.20;15.63;;;;;;;10.24;74.73;101877.19;5078503;28;20047;-88
2023/12/31 04:20:49;;;;;;;24.02;15.82;;;;;;;10.16;74.45;101866.22;5097374;28;20563;-89
2023/12/31 04:23:15;;;;;;;23.75;15.07;;;;;;;9.93;74.47;101821.06;5099196;28;20050;-88
2023/12/31 04:25:41;;;;;;;23.42;14.85;;;;;;;10.38;74.50;101902.66;5102632;28;20027;-89
2023/12/31 04:28:06;;;;;;;20.95;14.20;;;;;;;9.99;74.61;101837.19;5097351;28;20034;-89
2023/12/31 04:30:32;;;;;;;22.15;14.65;;;;;;;10.03;74.11;101845.22;5087227;28;20035;-87
2023/12/31 04:32:58;;;;;;;21.40;14.00;;;;;;;10.13;74.36;101864.25;5105616;28;20039;-87
2023/12/31 04:35:23;;;;;;;20.10;13.98;;;;;;;9.99;74.49;101839.78;5106575;27;20108;-87
2023/12/31 04:37:49;;;;;;;19.98;14.13;;;;;;;10.17;74.95;101879.34;5093575;28;20529;-87
2023/12/31 04:40:15;;;;;;;20.58;14.27;;;;;;;10.28;74.85;101902.75;5110179;28;20024;-87
2023/12/31 04:42:41;;;;;;;20.65;13.93;;;;;;;10.12;74.87;101885.06;5085703;28;21012;-88
2023/12/31 04:45:09;;;;;;;20.73;14.32;;;;;;;10.27;74.45;101904.44;5092027;28;20024;-88
2023/12/31 04:47:38;;;;;;;20.33;14.45;;;;;;;10.19;74.96;101902.97;5090926;28;20477;-87
2023/12/31 04:50:05;;;;;;;22.42;14.45;;;;;;;10.02;74.72;101867.81;5079277;28;20028;-87
2023/12/31 04:52:31;;;;;;;22.13;14.15;;;;;;;10.07;74.79;101873.34;5081912;28;20036;-87
2023/12/31 04:54:57;;;;;;;21.95;14.38;;;;;;;10.35;75.32;101937.28;5070217;28;20020;-88
2023/12/31 04:57:23;;;;;;;20.70;13.80;;;;;;;10.41;74.79;101936.81;5085630;28;20513;-88
2023/12/31 04:59:49;;;;;;;19.00;13.25;;;;;;;10.12;74.48;101888.56;5089541;28;20028;-87
2023/12/31 05:02:15;;;;;;;19.80;13.38;;;;;;;10.39;74.63;101938.41;5087719;28;20040;-86
2023/12/31 05:04:40;;;;;;;20.60;13.88;;;;;;;10.35;74.37;101929.47;5070387;28;20028;-86
2023/12/31 05:07:11;;;;;;;19.70;13.38;;;;;;;10.27;74.71;101912.28;5083646;28;20068;-87
2023/12/31 05:09:36;;;;;;;19.55;13.10;;;;;;;10.05;74.84;101882.78;5068020;28;20025;-86
2023/12/31 05:12:02;;;;;;;20.35;13.82;;;;;;;10.27;75.36;101930.56;5091832;28;20055;-86
2023/12/31 05:14:28;;;;;;;19.00;13.10;;;;;;;10.16;75.49;101914.09;5084659;28;20032;-86
2023/12/31 05:16:53;;;;;;;20.13;13.50;;;;;;;10.17;75.41;101918.50;5070446;28;20036;-87
2023/12/31 05:19:19;;;;;;;19.13;13.35;;;;;;;10.13;74.97;101911.25;5086838;28;20111;-86
2023/12/31 05:21:45;;;;;;;19.83;13.15;;;;;;;10.25;75.34;101933.84;5084692;28;20023;-85
2023/12/31 05:24:11;;;;;;;20.02;13.25;;;;;;;10.28;75.21;101941.91;5081085;28;20047;-86
2023/12/31 05:26:37;;;;;;;19.42;13.75;;;;;;;10.14;75.29;101927.84;5075293;28;20489;-86
2023/12/31 05:29:03;;;;;;;21.02;13.50;;;;;;;10.19;75.41;101932.59;5074415;28;20032;-86
2023/12/31 05:31:28;;;;;;;19.48;12.85;;;;;;;10.29;75.38;101959.41;5076785;28;20477;-86
2023/12/31 05:33:54;;;;;;;21.80;13.38;;;;;;;9.95;75.56;101897.75;5076287;28;20041;-86
2023/12/31 05:36:20;;;;;;;19.73;13.27;;;;;;;10.16;75.06;101929.78;5082072;28;20097;-86
2023/12/31 05:38:46;;;;;;;20.58;13.15;;;;;;;9.97;75.27;101901.38;5080082;28;20476;-85
2023/12/31 05:41:11;;;;;;;19.60;13.45;;;;;;;10.19;75.55;101944.75;5079954;28;20025;-86
2023/12/31 05:43:37;;;;;;;19.42;13.65;;;;;;;10.08;75.54;101932.59;5071146;28;20040;-86
2023/12/31 05:46:03;;;;;;;19.00;12.75;;;;;;;9.92;75.70;101902.72;5077533;28;20040;-87
2023/12/31 05:48:29;;;;;;;18.75;13.32;;;;;;;10.06;75.25;101922.03;5073337;28;20089;-87
2023/12/31 05:50:54;;;;;;;20.30;13.55;;;;;;;10.18;75.50;101948.13;5077394;28;20036;-87
2023/12/31 05:53:20;;;;;;;20.35;12.85;;;;;;;10.22;75.61;101952.78;5071047;28;20037;-85
2023/12/31 05:55:46;;;;;;;19.55;13.65;;;;;;;10.11;75.50;101938.03;5095259;27;20033;-86
2023/12/31 05:58:12;;;;;;;22.20;14.65;;;;;;;10.18;75.15;101949.06;5082216;28;20143;-86
2023/12/31 06:00:38;;;;;;;20.58;13.70;;;;;;;10.10;75.87;101933.63;5078759;28;20111;-87
2023/12/31 06:03:03;;;;;;;22.15;14.38;;;;;;;10.02;75.48;101921.72;5091574;27;20037;-87
2023/12/31 06:05:29;;;;;;;18.98;13.63;;;;;;;10.19;75.44;101957.78;5084997;28;20031;-86
2023/12/31 06:07:55;;;;;;;20.60;13.90;;;;;;;9.95;75.32;101915.13;5083847;28;20044;-86
2023/12/31 06:10:21;;;;;;;21.52;13.75;;;;;;;10.04;75.31;101926.25;5077640;28;20063;-86
2023/12/31 06:12:46;;;;;;;20.30;13.82;;;;;;;10.15;75.71;101951.44;5077512;28;20482;-86
2023/12/31 06:15:12;;;;;;;21.90;14.25;;;;;;;10.06;75.53;101937.69;5082027;28;20400;-86
2023/12/31 06:17:41;;;;;;;19.60;12.88;;;;;;;10.08;75.52;101937.81;5087919;28;20031;-84
2023/12/31 06:20:07;;;;;;;23.00;14.40;;;;;;;9.94;75.59;101921.13;5081342;28;20448;-85
2023/12/31 06:22:34;;;;;;;21.00;13.45;;;;;;;10.07;75.20;101929.06;5079476;28;20103;-87
2023/12/31 06:25:00;;;;;;;20.02;13.48;;;;;;;9.94;75.28;101918.50;5077382;28;20052;-88
2023/12/31 06:27:25;;;;;;;21.77;13.65;;;;;;;10.17;75.06;101965.50;5075695;28;20041;-86
2023/12/31 06:29:52;;;;;;;18.30;12.57;;;;;;;9.85;74.97;101913.50;5077376;28;20150;-86
2023/12/31 06:32:19;;;;;;;18.42;12.20;;;;;;;10.18;75.50;101972.56;5082637;28;20017;-85
2023/12/31 06:34:44;;;;;;;20.13;13.00;;;;;;;10.10;75.35;101947.56;5074298;28;20024;-86
2023/12/31 06:37:11;;;;;;;20.98;13.35;;;;;;;9.69;75.18;101884.44;5080930;28;20024;-87
2023/12/31 06:39:36;;;;;;;;;;;;;;;10.19;75.51;101976.97;5082781;28;20035;-87
2023/12/31 06:42:02;;;;;;;21.70;12.80;;;;;;;9.92;75.46;101938.34;5100595;27;19916;-89
2023/12/31 06:44:28;;;;;;;33.78;21.58;;;;;;;10.18;75.62;101977.78;5081959;28;20103;-88
2023/12/31 06:46:54;;;;;;;;;;;;;;;10.17;75.75;101975.03;5085556;28;20892;-88
2023/12/31 06:49:20;;;;;;;24.90;16.30;;;;;;;9.83;75.35;101914.19;5076448;28;19920;-87
2023/12/31 06:51:47;;;;;;;24.20;16.10;;;;;;;10.18;75.76;101983.00;5076363;28;20032;-87
2023/12/31 06:54:13;;;;;;;22.13;15.00;;;;;;;10.16;75.45;101981.06;5074970;28;20497;-86
2023/12/31 06:56:49;;;;;;;;;;;;;;;10.18;75.41;101988.22;5079172;28;20525;-87
2023/12/31 06:59:15;;;;;;;24.40;14.68;;;;;;;10.04;75.58;101956.66;5082118;28;20014;-89
2023/12/31 07:01:46;;;;;;;24.70;15.43;;;;;;;10.18;75.70;101988.22;5070380;28;20036;-86
2023/12/31 07:04:25;;;;;;;21.88;14.52;;;;;;;10.09;75.47;101974.44;5067036;28;20039;-88
2023/12/31 07:07:40;;;;;;;22.05;15.00;;;;;;;10.18;75.49;101987.28;5082376;28;20090;-85
2023/12/31 07:10:25;;;;;;;20.23;13.80;;;;;;;10.01;75.52;101967.75;5070657;28;20471;-87
2023/12/31 07:12:52;;;;;;;20.35;14.32;;;;;;;10.17;75.22;101996.81;5075061;28;20508;-90
2023/12/31 07:15:19;;;;;;;21.63;14.30;;;;;;;9.65;75.40;101905.88;5064538;28;20130;-88
2023/12/31 07:17:46;;;;;;;24.58;15.75;;;;;;;9.88;75.26;101946.75;5058596;28;20040;-88
2023/12/31 07:20:11;;;;;;;22.63;14.13;;;;;;;9.95;75.68;101951.66;5055236;28;20059;-88
2023/12/31 07:22:38;;;;;;;21.60;14.43;;;;;;;9.77;75.50;101920.75;5078318;28;20059;-87
2023/12/31 07:25:04;;;;;;;;;;;;;;;10.13;75.80;102000.00;5086631;28;20497;-86
2023/12/31 07:27:39;;;;;;;24.23;15.90;;;;;;;9.62;75.74;101909.16;5071651;28;20415;-87
2023/12/31 07:30:05;;;;;;;26.15;16.02;;;;;;;9.75;74.98;101932.75;5088864;28;20036;-88
2023/12/31 07:32:31;;;;;;;21.98;15.27;;;;;;;10.11;75.34;101987.63;5089833;28;20032;-90
2023/12/31 07:34:58;;;;;;;25.55;16.95;;;;;;;9.87;75.35;101960.59;5066165;28;20056;-90
2023/12/31 07:37:55;;;;;;;23.75;16.35;;;;;;;10.15;75.38;102005.34;5090128;28;20024;-90
2023/12/31 07:40:21;;;;;;;22.85;15.75;;;;;;;9.92;75.39;101974.88;5085460;28;20035;-89
2023/12/31 07:42:50;;;;;;;22.60;15.38;;;;;;;10.12;75.40;102012.97;5070096;28;20036;-90
2023/12/31 07:45:16;;;;;;;24.48;15.60;;;;;;;9.83;75.53;101958.53;5070548;28;20032;-88
2023/12/31 07:47:42;;;;;;;23.48;13.95;;;;;;;9.82;75.90;101956.72;5071677;28;20039;-89
2023/12/31 07:50:08;;;;;;;;;;;;;;;10.14;75.53;102022.72;5067413;28;20410;-86
2023/12/31 07:52:34;;;;;;;21.35;14.18;;;;;;;9.80;75.39;101964.44;5076357;28;19917;-85
2023/12/31 07:55:00;;;;;;;;;;;;;;;10.15;75.91;102021.91;5081448;28;20028;-86
2023/12/31 07:57:25;;;;;;;21.05;14.32;;;;;;;10.07;75.75;102016.91;5092544;28;19989;-86
2023/12/31 07:59:51;;;;;;;20.20;13.77;;;;;;;9.90;75.54;101986.91;5065126;28;20570;-86
2023/12/31 08:02:17;;;;;;;20.42;13.90;;;;;;;10.02;75.44;101998.28;5082668;28;20456;-86
2023/12/31 08:04:43;;;;;;;20.02;13.88;;;;;;;9.71;75.71;101950.69;5084029;28;20028;-86
2023/12/31 08:07:09;;;;;;;23.00;14.32;;;;;;;9.93;75.47;101987.16;5070150;28;20053;-89
2023/12/31 08:09:37;;;;;;;19.92;13.73;;;;;;;10.08;75.59;102008.28;5082897;28;20028;-85
2023/12/31 08:12:03;;;;;;;24.15;14.52;;;;;;;10.13;75.71;102025.19;5083050;28;20037;-86
2023/12/31 08:14:29;;;;;;;20.80;14.07;;;;;;;10.10;75.75;102009.31;5084147;28;20611;-86
2023/12/31 08:16:56;;;;;;;19.80;13.90;;;;;;;10.16;75.71;102026.34;5077133;28;20036;-86
2023/12/31 08:19:22;;;;;;;21.58;13.50;;;;;;;10.13;75.30;102019.97;5083259;28;20493;-85
2023/12/31 08:21:47;;;;;;;22.17;14.60;;;;;;;9.89;75.47;101980.78;5085267;28;20074;-86
2023/12/31 08:24:20;;;;;;;21.15;14.07;;;;;;;10.16;75.75;102026.34;5077923;28;20036;-83
2023/12/31 08:26:46;;;;;;;21.35;14.68;;;;;;;10.09;75.89;102011.00;5086617;28;20112;-85
2023/12/31 08:29:11;;;;;;;20.95;13.70;;;;;;;9.73;75.66;101955.22;5090600;28;20762;-86
2023/12/31 08:31:37;;;;;;;23.02;14.27;;;;;;;9.90;75.58;101985.19;5082546;28;20035;-88
2023/12/31 08:34:03;;;;;;;19.27;13.25;;;;;;;10.05;75.79;102022.00;5084388;28;20036;-86
2023/12/31 08:36:29;;;;;;;21.23;13.38;;;;;;;9.79;75.63;101973.94;5084520;28;20058;-85
2023/12/31 08:38:55;;;;;;;22.08;13.32;;;;;;;10.14;75.39;102032.25;5082576;28;20036;-85
2023/12/31 08:41:20;;;;;;;;;;;;;;;10.07;75.67;102025.63;5091202;28;20017;-86
2023/12/31 08:43:47;;;;;;;20.67;12.98;;;;;;;9.98;75.79;102012.78;5082394;28;19923;-87
2023/12/31 08:46:12;;;;;;;21.02;14.10;;;;;;;9.88;76.06;101997.22;5081136;28;20053;-86
2023/12/31 08:48:38;;;;;;;20.45;13.60;;;;;;;9.96;76.35;102009.16;5085947;28;20501;-88
2023/12/31 08:51:04;;;;;;;22.67;13.70;;;;;;;9.74;76.12;101970.09;5085172;28;20023;-88
2023/12/31 08:53:30;;;;;;;19.55;13.43;;;;;;;9.77;75.96;101974.63;5097690;28;20112;-87
2023/12/31 08:55:55;;;;;;;22.17;14.20;;;;;;;9.82;76.33;101986.34;5070678;28;20078;-87
2023/12/31 08:58:21;;;;;;;21.65;13.38;;;;;;;9.80;75.94;101998.38;5083390;28;20089;-87
2023/12/31 09:00:47;;;;;;;20.48;13.77;;;;;;;9.77;76.56;101980.75;5076780;28;20028;-86
2023/12/31 09:03:12;;;;;;;19.83;13.07;;;;;;;9.77;76.06;101977.25;5087002;28;20109;-87
2023/12/31 09:05:38;;;;;;;20.02;13.20;;;;;;;9.83;76.21;101987.25;5084839;28;20096;-88
2023/12/31 09:08:04;;;;;;;20.13;13.50;;;;;;;10.00;76.37;102020.75;5076427;28;20040;-86
2023/12/31 09:10:30;;;;;;;19.85;13.73;;;;;;;9.90;76.45;102002.56;5085696;28;20039;-86
2023/12/31 09:12:56;;;;;;;21.42;13.38;;;;;;;9.82;76.70;101993.25;5087611;28;20532;-87
2023/12/31 09:15:22;;;;;;;19.63;13.23;;;;;;;9.93;76.60;102013.25;5081474;28;20625;-85
2023/12/31 09:17:48;;;;;;;;;;;;;;;9.95;76.34;102020.41;5090312;28;20028;-86
2023/12/31 09:20:13;;;;;;;19.30;13.10;;;;;;;9.67;76.63;101966.88;5078415;28;19912;-87
2023/12/31 09:22:39;;;;;;;20.45;13.32;;;;;;;9.92;77.10;102017.53;5086900;28;20032;-86
2023/12/31 09:25:08;;;;;;;20.17;13.50;;;;;;;9.91;76.94;102017.44;5083600;28;20558;-86
2023/12/31 09:27:34;;;;;;;20.02;13.07;;;;;;;9.83;76.80;102000.28;5080039;28;20150;-86
2023/12/31 09:30:00;;;;;;;;;;;;;;;9.89;77.16;102013.81;5082572;28;20025;-86
2023/12/31 09:32:26;;;;;;;18.77;12.18;;;;;;;9.90;76.98;102011.28;5083546;28;20410;-86
2023/12/31 09:34:51;;;;;;;18.95;12.60;;;;;;;9.87;77.11;102005.84;5081056;28;20692;-86
2023/12/31 09:37:20;;;;;;;19.88;12.80;;;;;;;9.51;77.53;101933.53;5083097;28;20060;-86
2023/12/31 09:39:46;;;;;;;20.20;13.38;;;;;;;9.87;77.37;101994.53;5084563;28;20459;-85
2023/12/31 09:42:13;;;;;;;19.45;13.30;;;;;;;9.89;77.17;101988.63;5087674;28;20028;-85
2023/12/31 09:44:43;;;;;;;18.15;12.80;;;;;;;9.73;77.28;101960.44;5086183;28;20048;-87
2023/12/31 09:47:10;;;;;;;18.30;12.75;;;;;;;9.88;77.71;101999.81;5084187;28;20036;-86
2023/12/31 09:49:36;;;;;;;18.63;12.32;;;;;;;9.90;77.71;101994.75;5082609;28;20425;-86
2023/12/31 09:52:03;;;;;;;20.60;13.52;;;;;;;9.75;77.51;101976.22;5078386;28;20039;-85
2023/12/31 09:54:33;;;;;;;18.77;12.60;;;;;;;9.87;77.40;101991.91;5082538;28;20032;-86
2023/12/31 09:56:59;;;;;;;19.38;12.50;;;;;;;9.87;77.31;101989.31;5082705;28;20042;-86
2023/12/31 09:59:27;;;;;;;17.70;12.25;;;;;;;9.89;77.58;101996.44;5085356;28;20115;-86
2023/12/31 10:01:59;;;;;;;18.02;12.98;;;;;;;9.88;77.63;101997.22;5077754;28;20111;-86
2023/12/31 10:04:26;;;;;;;21.02;13.02;;;;;;;9.67;77.76;101961.66;5080674;28;20028;-87
2023/12/31 10:06:52;;;;;;;18.30;12.52;;;;;;;9.55;77.56;101930.34;5074166;28;20040;-86
2023/12/31 10:09:19;;;;;;;;;;;;;;;9.90;77.93;101999.94;5075945;28;20492;-86
2023/12/31 10:11:46;;;;;;;16.85;11.75;;;;;;;9.62;77.48;101950.00;5098951;27;19962;-85
2023/12/31 10:14:13;;;;;;;18.85;12.40;;;;;;;9.79;78.05;101971.34;5079764;28;20044;-85
2023/12/31 10:16:43;;;;;;;19.30;12.75;;;;;;;9.56;77.68;101935.66;5084315;28;20115;-86
2023/12/31 10:19:13;;;;;;;18.45;12.25;;;;;;;9.78;77.66;101974.75;5084058;28;20032;-86
2023/12/31 10:21:39;;;;;;;18.40;12.80;;;;;;;9.87;77.96;101978.88;5084080;28;20024;-85
2023/12/31 10:24:05;;;;;;;17.85;12.13;;;;;;;9.91;77.76;101987.03;5073835;28;20036;-86
2023/12/31 10:26:34;;;;;;;;;;;;;;;9.91;77.68;101988.75;5085491;28;20020;-85
2023/12/31 10:29:00;;;;;;;19.63;12.15;;;;;;;9.87;77.95;101984.09;5079437;28;19974;-85
2023/12/31 10:31:25;;;;;;;17.73;12.23;;;;;;;9.73;77.78;101944.78;5074310;28;20056;-85
2023/12/31 10:33:51;;;;;;;20.08;12.98;;;;;;;9.89;77.74;101967.75;5077124;28;20472;-85
2023/12/31 10:36:24;;;;;;;18.08;12.52;;;;;;;9.78;77.85;101939.94;5095790;27;20044;-87
2023/12/31 10:38:51;;;;;;;18.45;12.57;;;;;;;9.96;77.90;101966.50;5085924;28;20036;-86
2023/12/31 10:41:24;;;;;;;18.58;12.48;;;;;;;9.92;77.83;101951.41;5076553;28;20024;-85
2023/12/31 10:43:54;;;;;;;17.52;12.38;;;;;;;9.78;77.47;101925.19;5081961;28;20144;-93
2023/12/31 10:46:46;;;;;;;21.30;13.63;;;;;;;10.11;75.37;101956.31;5083279;28;20496;-93
2023/12/31 10:49:30;;;;;;;25.00;14.73;;;;;;;9.99;74.72;101909.34;5071759;28;20032;-94
2023/12/31 10:52:00;;;;;;;26.30;15.38;;;;;;;9.95;75.17;101907.28;5068549;28;20039;-93
2023/12/31 10:54:46;;;;;;;33.72;17.50;;;;;;;10.12;74.97;101922.50;5073568;28;20115;-94
2023/12/31 10:57:20;;;;;;;27.90;16.63;;;;;;;9.82;75.53;101876.78;5084845;28;20107;-92
2023/12/31 10:59:53;;;;;;;23.42;15.23;;;;;;;9.71;75.52;101849.84;5080236;28;20119;-93
2023/12/31 11:02:21;;;;;;;31.45;17.63;;;;;;;9.70;75.66;101829.78;5074471;28;20082;-88
2023/12/31 11:04:48;;;;;;;29.15;16.70;;;;;;;9.69;76.01;101841.00;5069418;28;20696;-89
2023/12/31 11:07:20;;;;;;;26.63;16.95;;;;;;;9.93;76.50;101901.06;5076639;28;20066;-88
2023/12/31 11:09:47;;;;;;;27.30;17.15;;;;;;;10.07;77.05;101934.28;5075773;28;20591;-88
2023/12/31 11:12:14;;;;;;;25.83;17.00;;;;;;;9.76;76.71;101871.09;5081168;28;20047;-89
2023/12/31 11:15:35;;;;;;;24.15;15.95;;;;;;;10.05;77.17;101928.03;5086247;28;20443;-88